createdAt,value
2016-04-04T00:00:20.906Z,0
2016-04-04T00:01:20.940Z,0
2016-04-04T00:02:21.020Z,0
2016-04-04T00:03:21.055Z,0
2016-04-04T00:04:21.073Z,0
2016-04-04T00:05:21.123Z,0
2016-04-04T00:06:21.203Z,0
2016-04-04T00:07:21.222Z,0
2016-04-04T00:08:21.240Z,0
2016-04-04T00:09:21.273Z,0
2016-04-04T00:10:21.308Z,0
2016-04-04T00:11:21.358Z,0
2016-04-04T00:12:21.439Z,0
2016-04-04T00:13:21.441Z,0
2016-04-04T00:14:21.491Z,0
2016-04-04T00:15:21.509Z,0
2016-04-04T00:16:21.575Z,0
2016-04-04T00:17:21.592Z,0
2016-04-04T00:18:21.672Z,0
2016-04-04T00:19:21.675Z,0
2016-04-04T00:20:21.757Z,0
2016-04-04T00:21:21.791Z,0
2016-04-04T00:22:21.794Z,0
2016-04-04T00:23:21.843Z,0
2016-04-04T00:24:21.861Z,0
2016-04-04T00:25:21.910Z,0
2016-04-04T00:26:21.976Z,0
2016-04-04T00:27:22.010Z,0
2016-04-04T00:28:22.029Z,0
2016-04-04T00:29:22.077Z,0
2016-04-04T00:30:22.112Z,0
2016-04-04T00:31:22.145Z,0
2016-04-04T00:32:22.226Z,0
2016-04-04T00:33:22.260Z,0
2016-04-04T00:34:22.263Z,0
2016-04-04T00:35:22.312Z,0
2016-04-04T00:36:22.362Z,0
2016-04-04T00:37:22.380Z,0
2016-04-04T00:38:22.461Z,0
2016-04-04T00:39:22.340Z,0
2016-04-04T00:40:22.528Z,0
2016-04-04T00:41:22.548Z,0
2016-04-04T00:42:22.597Z,0
2016-04-04T00:43:22.521Z,0
2016-04-04T00:44:22.696Z,0
2016-04-04T00:45:22.715Z,0
2016-04-04T00:46:22.733Z,0
2016-04-04T00:47:22.783Z,0
2016-04-04T00:48:22.847Z,0
2016-04-04T00:49:22.897Z,0
2016-04-04T00:50:22.930Z,0
2016-04-04T00:51:22.965Z,0
2016-04-04T00:52:22.999Z,0
2016-04-04T00:53:23.033Z,0
2016-04-04T00:54:23.082Z,0
2016-04-04T00:55:23.132Z,0
2016-04-04T00:56:23.182Z,0
2016-04-04T00:57:23.185Z,0
2016-04-04T00:58:23.234Z,0
2016-04-04T00:59:23.283Z,0
2016-04-04T01:00:23.317Z,0
2016-04-04T01:01:23.367Z,0
2016-04-04T01:02:23.416Z,0
2016-04-04T01:03:23.435Z,0
2016-04-04T01:04:23.454Z,0
2016-04-04T01:05:23.503Z,0
2016-04-04T01:06:23.552Z,0
2016-04-04T01:07:23.587Z,0
2016-04-04T01:08:23.637Z,0
2016-04-04T01:09:23.654Z,0
2016-04-04T01:10:23.704Z,0
2016-04-04T01:11:23.754Z,0
2016-04-04T01:12:23.772Z,0
2016-04-04T01:13:23.665Z,0
2016-04-04T01:14:23.855Z,0
2016-04-04T01:15:23.748Z,0
2016-04-04T01:16:23.939Z,0
2016-04-04T01:17:23.988Z,0
2016-04-04T01:18:24.006Z,0
2016-04-04T01:19:24.056Z,0
2016-04-04T01:20:24.089Z,0
2016-04-04T01:21:24.139Z,0
2016-04-04T01:22:24.174Z,0
2016-04-04T01:23:24.223Z,0
2016-04-04T01:24:24.258Z,0
2016-04-04T01:25:24.291Z,0
2016-04-04T01:26:24.185Z,0
2016-04-04T01:27:24.374Z,0
2016-04-04T01:28:24.393Z,0
2016-04-04T01:29:24.457Z,0
2016-04-04T01:30:24.491Z,0
2016-04-04T01:31:24.526Z,0
2016-04-04T01:32:24.560Z,0
2016-04-04T01:33:24.625Z,0
2016-04-04T01:34:24.643Z,0
2016-04-04T01:35:24.693Z,0
2016-04-04T01:36:24.743Z,0
2016-04-04T01:37:24.777Z,0
2016-04-04T01:38:24.810Z,0
2016-04-04T01:39:24.845Z,0
2016-04-04T01:40:24.894Z,0
2016-04-04T01:41:24.928Z,0
2016-04-04T01:42:24.962Z,0
2016-04-04T01:43:24.995Z,0
2016-04-04T01:44:25.045Z,0
2016-04-04T01:45:25.079Z,0
2016-04-04T01:46:25.128Z,0
2016-04-04T01:47:25.147Z,0
2016-04-04T01:48:25.196Z,0
2016-04-04T01:49:25.230Z,0
2016-04-04T01:50:25.264Z,0
2016-04-04T01:51:25.329Z,0
2016-04-04T01:52:25.347Z,0
2016-04-04T01:53:25.382Z,0
2016-04-04T01:54:25.430Z,0
2016-04-04T01:55:25.465Z,0
2016-04-04T01:56:25.515Z,0
2016-04-04T01:57:25.549Z,0
2016-04-04T01:58:25.582Z,0
2016-04-04T01:59:25.632Z,0
2016-04-04T02:00:25.671Z,0
2016-04-04T02:01:25.705Z,0
2016-04-04T02:02:25.740Z,0
2016-04-04T02:03:25.773Z,0
2016-04-04T02:04:25.807Z,0
2016-04-04T02:05:25.872Z,0
2016-04-04T02:06:25.906Z,0
2016-04-04T02:07:25.940Z,0
2016-04-04T02:08:25.989Z,0
2016-04-04T02:09:26.023Z,0
2016-04-04T02:10:26.057Z,0
2016-04-04T02:11:26.092Z,0
2016-04-04T02:12:26.141Z,0
2016-04-04T02:13:26.175Z,0
2016-04-04T02:14:26.225Z,0
2016-04-04T02:15:26.243Z,0
2016-04-04T02:16:26.277Z,0
2016-04-04T02:17:26.326Z,0
2016-04-04T02:18:26.360Z,0
2016-04-04T02:19:26.425Z,0
2016-04-04T02:20:26.459Z,0
2016-04-04T02:21:26.478Z,0
2016-04-04T02:22:26.512Z,0
2016-04-04T02:23:26.577Z,0
2016-04-04T02:24:26.595Z,0
2016-04-04T02:25:26.644Z,0
2016-04-04T02:26:26.694Z,0
2016-04-04T02:27:26.728Z,0
2016-04-04T02:28:26.747Z,0
2016-04-04T02:29:26.780Z,0
2016-04-04T02:30:26.815Z,0
2016-04-04T02:31:26.864Z,0
2016-04-04T02:32:26.929Z,0
2016-04-04T02:33:26.963Z,0
2016-04-04T02:34:26.997Z,0
2016-04-04T02:35:27.046Z,0
2016-04-04T02:36:27.065Z,0
2016-04-04T02:37:27.130Z,0
2016-04-04T02:38:27.132Z,0
2016-04-04T02:39:27.182Z,0
2016-04-04T02:40:27.232Z,0
2016-04-04T02:41:27.265Z,0
2016-04-04T02:42:27.284Z,0
2016-04-04T02:43:27.350Z,0
2016-04-04T02:44:27.384Z,0
2016-04-04T02:45:27.417Z,0
2016-04-04T02:46:27.467Z,0
2016-04-04T02:47:27.501Z,0
2016-04-04T02:48:27.519Z,0
2016-04-04T02:49:27.569Z,0
2016-04-04T02:50:27.602Z,0
2016-04-04T02:51:27.480Z,0
2016-04-04T02:52:27.686Z,0
2016-04-04T02:53:27.735Z,0
2016-04-04T02:54:27.754Z,0
2016-04-04T02:55:27.803Z,0
2016-04-04T02:56:27.837Z,0
2016-04-04T02:57:27.888Z,0
2016-04-04T02:58:27.905Z,0
2016-04-04T02:59:27.971Z,0
2016-04-04T03:00:27.988Z,0
2016-04-04T03:01:28.039Z,0
2016-04-04T03:02:28.057Z,0
2016-04-04T03:03:28.106Z,0
2016-04-04T03:04:28.141Z,0
2016-04-04T03:05:28.190Z,0
2016-04-04T03:06:28.224Z,0
2016-04-04T03:07:28.122Z,0
2016-04-04T03:08:28.472Z,0
2016-04-04T03:09:28.335Z,0
2016-04-04T03:10:28.368Z,0
2016-04-04T03:11:28.418Z,0
2016-04-04T03:12:28.468Z,0
2016-04-04T03:13:28.501Z,0
2016-04-04T03:14:28.535Z,0
2016-04-04T03:15:28.585Z,0
2016-04-04T03:16:28.603Z,0
2016-04-04T03:17:28.637Z,0
2016-04-04T03:18:28.687Z,0
2016-04-04T03:19:28.721Z,0
2016-04-04T03:20:28.770Z,0
2016-04-04T03:21:28.804Z,0
2016-04-04T03:22:28.838Z,0
2016-04-04T03:23:28.887Z,0
2016-04-04T03:24:28.922Z,0
2016-04-04T03:25:28.956Z,0
2016-04-04T03:26:29.005Z,0
2016-04-04T03:27:29.039Z,0
2016-04-04T03:28:29.073Z,0
2016-04-04T03:29:29.122Z,0
2016-04-04T03:30:29.156Z,0
2016-04-04T03:31:29.191Z,0
2016-04-04T03:32:29.255Z,0
2016-04-04T03:33:29.274Z,0
2016-04-04T03:34:29.308Z,0
2016-04-04T03:35:29.358Z,0
2016-04-04T03:36:29.250Z,0
2016-04-04T03:37:29.425Z,0
2016-04-04T03:38:29.460Z,0
2016-04-04T03:39:29.541Z,0
2016-04-04T03:40:29.574Z,0
2016-04-04T03:41:29.592Z,0
2016-04-04T03:42:29.627Z,0
2016-04-04T03:43:29.676Z,0
2016-04-04T03:44:29.709Z,0
2016-04-04T03:45:29.760Z,0
2016-04-04T03:46:29.778Z,0
2016-04-04T03:47:29.827Z,0
2016-04-04T03:48:29.861Z,0
2016-04-04T03:49:29.896Z,0
2016-04-04T03:50:29.960Z,0
2016-04-04T03:51:29.994Z,0
2016-04-04T03:52:30.028Z,0
2016-04-04T03:53:30.031Z,0
2016-04-04T03:54:30.081Z,0
2016-04-04T03:55:30.130Z,0
2016-04-04T03:56:30.211Z,0
2016-04-04T03:57:30.229Z,0
2016-04-04T03:58:30.248Z,0
2016-04-04T03:59:30.281Z,0
2016-04-04T04:00:30.315Z,0
2016-04-04T04:01:30.397Z,0
2016-04-04T04:02:30.445Z,0
2016-04-04T04:03:30.464Z,0
2016-04-04T04:04:30.483Z,0
2016-04-04T04:05:30.516Z,0
2016-04-04T04:06:30.582Z,0
2016-04-04T04:07:30.617Z,0
2016-04-04T04:08:30.619Z,0
2016-04-04T04:09:30.684Z,0
2016-04-04T04:10:30.718Z,0
2016-04-04T04:11:30.783Z,0
2016-04-04T04:12:30.802Z,0
2016-04-04T04:13:30.836Z,0
2016-04-04T04:14:30.886Z,0
2016-04-04T04:15:30.935Z,0
2016-04-04T04:16:30.953Z,0
2016-04-04T04:17:30.972Z,0
2016-04-04T04:18:31.021Z,0
2016-04-04T04:19:31.086Z,0
2016-04-04T04:20:31.088Z,0
2016-04-04T04:21:31.170Z,0
2016-04-04T04:22:31.188Z,0
2016-04-04T04:23:31.206Z,0
2016-04-04T04:24:31.225Z,0
2016-04-04T04:25:31.290Z,0
2016-04-04T04:26:31.324Z,0
2016-04-04T04:27:31.357Z,0
2016-04-04T04:28:31.424Z,0
2016-04-04T04:29:31.457Z,0
2016-04-04T04:30:31.521Z,0
2016-04-04T04:31:31.540Z,0
2016-04-04T04:32:31.542Z,0
2016-04-04T04:33:31.593Z,0
2016-04-04T04:34:31.657Z,0
2016-04-04T04:35:31.692Z,0
2016-04-04T04:36:31.757Z,0
2016-04-04T04:37:31.759Z,0
2016-04-04T04:38:31.809Z,0
2016-04-04T04:39:31.827Z,0
2016-04-04T04:40:31.862Z,0
2016-04-04T04:41:31.926Z,0
2016-04-04T04:42:31.976Z,0
2016-04-04T04:43:31.994Z,0
2016-04-04T04:44:32.028Z,0
2016-04-04T04:45:32.062Z,0
2016-04-04T04:46:32.127Z,0
2016-04-04T04:47:32.177Z,0
2016-04-04T04:48:32.180Z,0
2016-04-04T04:49:32.230Z,0
2016-04-04T04:50:32.263Z,0
2016-04-04T04:51:32.313Z,0
2016-04-04T04:52:32.347Z,0
2016-04-04T04:53:32.396Z,0
2016-04-04T04:54:32.415Z,0
2016-04-04T04:55:32.448Z,0
2016-04-04T04:56:32.498Z,0
2016-04-04T04:57:32.548Z,5
2016-04-04T04:58:32.582Z,5
2016-04-04T04:59:32.615Z,5
2016-04-04T05:00:32.665Z,5
2016-04-04T05:01:32.699Z,5
2016-04-04T05:02:32.732Z,5
2016-04-04T05:03:32.768Z,5
2016-04-04T05:04:32.848Z,5
2016-04-04T05:05:32.866Z,5
2016-04-04T05:06:32.884Z,10
2016-04-04T05:07:32.934Z,10
2016-04-04T05:08:32.968Z,10
2016-04-04T05:09:33.017Z,10
2016-04-04T05:10:33.020Z,10
2016-04-04T05:11:33.085Z,10
2016-04-04T05:12:33.120Z,10
2016-04-04T05:13:33.169Z,15
2016-04-04T05:14:33.186Z,15
2016-04-04T05:15:33.253Z,15
2016-04-04T05:16:33.271Z,15
2016-04-04T05:17:33.305Z,15
2016-04-04T05:18:33.338Z,20
2016-04-04T05:19:33.389Z,20
2016-04-04T05:20:33.422Z,20
2016-04-04T05:21:33.455Z,25
2016-04-04T05:22:33.505Z,30
2016-04-04T05:23:33.524Z,30
2016-04-04T05:24:33.433Z,35
2016-04-04T05:25:33.294Z,40
2016-04-04T05:26:33.662Z,40
2016-04-04T05:27:33.858Z,45
2016-04-04T05:28:34.459Z,45
2016-04-04T05:29:33.774Z,50
2016-04-04T05:30:33.808Z,50
2016-04-04T05:31:33.874Z,55
2016-04-04T05:32:33.892Z,55
2016-04-04T05:33:33.754Z,55
2016-04-04T05:34:33.959Z,55
2016-04-04T05:35:34.009Z,55
2016-04-04T05:36:34.043Z,55
2016-04-04T05:37:34.077Z,60
2016-04-04T05:38:34.112Z,60
2016-04-04T05:39:34.145Z,65
2016-04-04T05:40:34.195Z,65
2016-04-04T05:41:34.228Z,70
2016-04-04T05:42:34.262Z,70
2016-04-04T05:43:34.312Z,75
2016-04-04T05:44:34.361Z,75
2016-04-04T05:45:34.396Z,80
2016-04-04T05:46:34.445Z,80
2016-04-04T05:47:34.464Z,75
2016-04-04T05:48:34.482Z,75
2016-04-04T05:49:34.563Z,70
2016-04-04T05:50:34.597Z,70
2016-04-04T05:51:34.630Z,70
2016-04-04T05:52:34.649Z,70
2016-04-04T05:53:34.698Z,70
2016-04-04T05:54:34.733Z,75
2016-04-04T05:55:34.797Z,85
2016-04-04T05:56:34.831Z,85
2016-04-04T05:57:34.866Z,90
2016-04-04T05:58:34.931Z,90
2016-04-04T05:59:34.933Z,90
2016-04-04T06:00:35.013Z,95
2016-04-04T06:01:35.016Z,100
2016-04-04T06:02:35.051Z,100
2016-04-04T06:03:35.084Z,105
2016-04-04T06:04:35.181Z,100
2016-04-04T06:05:35.168Z,110
2016-04-04T06:06:35.202Z,110
2016-04-04T06:07:35.236Z,110
2016-04-04T06:08:35.301Z,115
2016-04-04T06:09:35.320Z,115
2016-04-04T06:10:35.353Z,120
2016-04-04T06:11:35.403Z,120
2016-04-04T06:12:35.453Z,120
2016-04-04T06:13:35.486Z,110
2016-04-04T06:14:35.536Z,120
2016-04-04T06:15:35.554Z,120
2016-04-04T06:16:35.635Z,125
2016-04-04T06:17:35.653Z,125
2016-04-04T06:18:35.687Z,120
2016-04-04T06:19:35.753Z,120
2016-04-04T06:20:35.786Z,125
2016-04-04T06:21:35.836Z,130
2016-04-04T06:22:35.870Z,130
2016-04-04T06:23:35.888Z,135
2016-04-04T06:24:35.938Z,130
2016-04-04T06:25:35.971Z,120
2016-04-04T06:26:36.005Z,120
2016-04-04T06:27:36.040Z,120
2016-04-04T06:28:35.932Z,130
2016-04-04T06:29:36.124Z,160
2016-04-04T06:30:36.188Z,175
2016-04-04T06:31:36.051Z,190
2016-04-04T06:32:36.256Z,160
2016-04-04T06:33:36.291Z,200
2016-04-04T06:34:36.355Z,195
2016-04-04T06:35:36.373Z,200
2016-04-04T06:36:36.408Z,190
2016-04-04T06:37:36.457Z,200
2016-04-04T06:38:36.491Z,190
2016-04-04T06:39:36.540Z,170
2016-04-04T06:40:36.590Z,140
2016-04-04T06:41:36.609Z,130
2016-04-04T06:42:36.658Z,125
2016-04-04T06:43:36.692Z,125
2016-04-04T06:44:36.742Z,135
2016-04-04T06:45:36.792Z,155
2016-04-04T06:46:36.809Z,140
2016-04-04T06:47:36.875Z,145
2016-04-04T06:48:36.893Z,145
2016-04-04T06:49:36.974Z,145
2016-04-04T06:50:36.977Z,165
2016-04-04T06:51:37.025Z,160
2016-04-04T06:52:37.060Z,140
2016-04-04T06:53:37.110Z,145
2016-04-04T06:54:37.144Z,130
2016-04-04T06:55:37.193Z,125
2016-04-04T06:56:37.243Z,120
2016-04-04T06:57:37.261Z,120
2016-04-04T06:58:37.310Z,150
2016-04-04T06:59:37.376Z,155
2016-04-04T07:00:37.243Z,145
2016-04-04T07:01:37.449Z,170
2016-04-04T07:02:37.467Z,210
2016-04-04T07:03:37.376Z,270
2016-04-04T07:04:37.628Z,280
2016-04-04T07:05:37.632Z,220
2016-04-04T07:06:37.634Z,175
2016-04-04T07:07:37.684Z,170
2016-04-04T07:08:37.733Z,145
2016-04-04T07:09:37.767Z,130
2016-04-04T07:10:37.800Z,160
2016-04-04T07:11:37.866Z,135
2016-04-04T07:12:37.915Z,125
2016-04-04T07:13:37.949Z,145
2016-04-04T07:14:37.968Z,195
2016-04-04T07:15:38.017Z,280
2016-04-04T07:16:37.894Z,300
2016-04-04T07:17:38.100Z,285
2016-04-04T07:18:38.119Z,220
2016-04-04T07:19:38.184Z,255
2016-04-04T07:20:38.218Z,205
2016-04-04T07:21:38.269Z,200
2016-04-04T07:22:38.317Z,170
2016-04-04T07:23:38.352Z,145
2016-04-04T07:24:38.385Z,175
2016-04-04T07:25:38.435Z,205
2016-04-04T07:26:38.469Z,165
2016-04-04T07:27:38.519Z,140
2016-04-04T07:28:38.583Z,235
2016-04-04T07:29:38.632Z,175
2016-04-04T07:30:38.652Z,130
2016-04-04T07:31:38.671Z,150
2016-04-04T07:32:38.735Z,240
2016-04-04T07:33:38.753Z,295
2016-04-04T07:34:38.850Z,335
2016-04-04T07:35:38.836Z,260
2016-04-04T07:36:38.871Z,260
2016-04-04T07:37:38.920Z,315
2016-04-04T07:38:38.970Z,370
2016-04-04T07:39:39.020Z,365
2016-04-04T07:40:39.054Z,255
2016-04-04T07:41:39.072Z,165
2016-04-04T07:42:39.120Z,165
2016-04-04T07:43:39.171Z,180
2016-04-04T07:44:39.221Z,235
2016-04-04T07:45:39.254Z,300
2016-04-04T07:46:39.288Z,365
2016-04-04T07:47:39.338Z,340
2016-04-04T07:48:39.387Z,270
2016-04-04T07:49:38.719Z,210
2016-04-04T07:50:39.455Z,315
2016-04-04T07:51:39.505Z,380
2016-04-04T07:52:39.554Z,405
2016-04-04T07:53:39.605Z,395
2016-04-04T07:54:39.638Z,425
2016-04-04T07:55:39.671Z,410
2016-04-04T07:56:39.722Z,370
2016-04-04T07:57:39.755Z,435
2016-04-04T07:58:39.821Z,525
2016-04-04T07:59:39.870Z,550
2016-04-04T08:00:39.748Z,475
2016-04-04T08:01:39.921Z,390
2016-04-04T08:02:39.972Z,360
2016-04-04T08:03:40.006Z,335
2016-04-04T08:04:40.071Z,350
2016-04-04T08:05:40.074Z,370
2016-04-04T08:06:40.140Z,485
2016-04-04T08:07:40.188Z,575
2016-04-04T08:08:40.253Z,615
2016-04-04T08:09:40.287Z,645
2016-04-04T08:10:40.306Z,760
2016-04-04T08:11:40.371Z,885
2016-04-04T08:12:40.420Z,905
2016-04-04T08:13:40.298Z,950
2016-04-04T08:14:40.488Z,905
2016-04-04T08:15:40.538Z,845
2016-04-04T08:16:40.572Z,880
2016-04-04T08:17:40.622Z,920
2016-04-04T08:18:40.672Z,945
2016-04-04T08:19:40.799Z,970
2016-04-04T08:20:40.755Z,965
2016-04-04T08:21:40.851Z,950
2016-04-04T08:22:40.838Z,955
2016-04-04T08:23:40.888Z,490
2016-04-04T08:24:40.938Z,535
2016-04-04T08:25:40.972Z,1080
2016-04-04T08:26:41.021Z,1030
2016-04-04T08:27:41.102Z,595
2016-04-04T08:28:41.104Z,205
2016-04-04T08:29:41.155Z,190
2016-04-04T08:30:41.204Z,185
2016-04-04T08:31:41.238Z,210
2016-04-04T08:32:41.287Z,210
2016-04-04T08:33:41.327Z,220
2016-04-04T08:34:41.536Z,200
2016-04-04T08:35:41.402Z,165
2016-04-04T08:36:41.440Z,190
2016-04-04T08:37:41.446Z,190
2016-04-04T08:38:41.491Z,175
2016-04-04T08:39:41.536Z,185
2016-04-04T08:40:41.580Z,175
2016-04-04T08:41:41.626Z,140
2016-04-04T08:42:41.656Z,160
2016-04-04T08:43:41.688Z,190
2016-04-04T08:44:41.767Z,190
2016-04-04T08:45:41.785Z,190
2016-04-04T08:46:41.832Z,215
2016-04-04T08:47:41.864Z,260
2016-04-04T08:48:41.914Z,265
2016-04-04T08:49:42.008Z,245
2016-04-04T08:50:41.885Z,1095
2016-04-04T08:51:42.059Z,215
2016-04-04T08:52:42.092Z,160
2016-04-04T08:53:42.126Z,215
2016-04-04T08:54:42.176Z,190
2016-04-04T08:55:42.209Z,150
2016-04-04T08:56:42.836Z,515
2016-04-04T08:57:42.307Z,170
2016-04-04T08:58:42.341Z,140
2016-04-04T08:59:42.391Z,1165
2016-04-04T09:00:42.441Z,215
2016-04-04T09:01:42.521Z,200
2016-04-04T09:02:42.523Z,155
2016-04-04T09:03:42.433Z,150
2016-04-04T09:04:42.654Z,130
2016-04-04T09:05:42.657Z,210
2016-04-04T09:06:42.846Z,135
2016-04-04T09:07:42.630Z,1260
2016-04-04T09:08:42.774Z,1165
2016-04-04T09:09:42.824Z,150
2016-04-04T09:10:42.888Z,1215
2016-04-04T09:11:42.923Z,1215
2016-04-04T09:12:42.956Z,725
2016-04-04T09:13:43.006Z,125
2016-04-04T09:14:43.024Z,140
2016-04-04T09:15:43.106Z,160
2016-04-04T09:16:43.123Z,125
2016-04-04T09:17:43.189Z,110
2016-04-04T09:18:43.223Z,105
2016-04-04T09:19:43.319Z,100
2016-04-04T09:20:43.306Z,110
2016-04-04T09:21:43.340Z,130
2016-04-04T09:22:43.405Z,100
2016-04-04T09:23:43.439Z,105
2016-04-04T09:24:43.505Z,185
2016-04-04T09:25:43.523Z,215
2016-04-04T09:26:43.588Z,190
2016-04-04T09:27:43.606Z,180
2016-04-04T09:28:43.672Z,205
2016-04-04T09:29:43.705Z,210
2016-04-04T09:30:43.755Z,200
2016-04-04T09:31:43.805Z,220
2016-04-04T09:32:43.854Z,265
2016-04-04T09:33:43.888Z,285
2016-04-04T09:34:44.047Z,275
2016-04-04T09:35:43.955Z,235
2016-04-04T09:36:44.021Z,210
2016-04-04T09:37:44.055Z,180
2016-04-04T09:38:44.105Z,160
2016-04-04T09:39:44.154Z,155
2016-04-04T09:40:44.204Z,155
2016-04-04T09:41:44.253Z,190
2016-04-04T09:42:44.287Z,185
2016-04-04T09:43:44.321Z,160
2016-04-04T09:44:44.387Z,160
2016-04-04T09:45:44.405Z,180
2016-04-04T09:46:44.423Z,175
2016-04-04T09:47:44.472Z,185
2016-04-04T09:48:44.523Z,215
2016-04-04T09:49:44.448Z,210
2016-04-04T09:50:44.606Z,180
2016-04-04T09:51:44.655Z,150
2016-04-04T09:52:44.751Z,185
2016-04-04T09:53:44.769Z,205
2016-04-04T09:54:44.788Z,215
2016-04-04T09:55:44.839Z,235
2016-04-04T09:56:44.919Z,245
2016-04-04T09:57:44.922Z,240
2016-04-04T09:58:44.939Z,245
2016-04-04T09:59:44.974Z,250
2016-04-04T10:00:45.039Z,230
2016-04-04T10:01:45.105Z,205
2016-04-04T10:02:45.154Z,195
2016-04-04T10:03:45.156Z,185
2016-04-04T10:04:45.221Z,190
2016-04-04T10:05:45.240Z,215
2016-04-04T10:06:45.586Z,225
2016-04-04T10:07:45.324Z,215
2016-04-04T10:08:45.357Z,210
2016-04-04T10:09:45.412Z,205
2016-04-04T10:10:45.461Z,215
2016-04-04T10:11:45.527Z,220
2016-04-04T10:12:45.576Z,215
2016-04-04T10:13:45.595Z,180
2016-04-04T10:14:45.643Z,175
2016-04-04T10:15:45.662Z,205
2016-04-04T10:16:45.728Z,205
2016-04-04T10:17:45.777Z,200
2016-04-04T10:18:45.811Z,175
2016-04-04T10:19:45.907Z,175
2016-04-04T10:20:45.894Z,190
2016-04-04T10:21:45.944Z,215
2016-04-04T10:22:45.978Z,230
2016-04-04T10:23:46.012Z,215
2016-04-04T10:24:46.077Z,195
2016-04-04T10:25:46.095Z,195
2016-04-04T10:26:46.145Z,195
2016-04-04T10:27:46.195Z,205
2016-04-04T10:28:46.228Z,215
2016-04-04T10:29:46.278Z,235
2016-04-04T10:30:46.311Z,235
2016-04-04T10:31:46.221Z,245
2016-04-04T10:32:46.426Z,235
2016-04-04T10:33:46.477Z,215
2016-04-04T10:34:46.558Z,220
2016-04-04T10:35:46.529Z,225
2016-04-04T10:36:46.593Z,210
2016-04-04T10:37:46.612Z,195
2016-04-04T10:38:46.676Z,190
2016-04-04T10:39:46.742Z,195
2016-04-04T10:40:46.761Z,200
2016-04-04T10:41:46.795Z,200
2016-04-04T10:42:46.876Z,195
2016-04-04T10:43:46.893Z,185
2016-04-04T10:44:46.912Z,195
2016-04-04T10:45:46.977Z,180
2016-04-04T10:46:47.027Z,165
2016-04-04T10:47:47.076Z,160
2016-04-04T10:48:47.095Z,155
2016-04-04T10:49:47.300Z,150
2016-04-04T10:50:47.178Z,140
2016-04-04T10:51:47.212Z,135
2016-04-04T10:52:47.262Z,130
2016-04-04T10:53:47.311Z,115
2016-04-04T10:54:47.361Z,115
2016-04-04T10:55:47.394Z,135
2016-04-04T10:56:47.475Z,165
2016-04-04T10:57:47.494Z,175
2016-04-04T10:58:47.559Z,165
2016-04-04T10:59:47.561Z,170
2016-04-04T11:00:47.596Z,175
2016-04-04T11:01:47.645Z,205
2016-04-04T11:02:47.695Z,205
2016-04-04T11:03:47.729Z,185
2016-04-04T11:04:47.872Z,160
2016-04-04T11:05:47.843Z,165
2016-04-04T11:06:47.847Z,155
2016-04-04T11:07:47.911Z,155
2016-04-04T11:08:47.955Z,150
2016-04-04T11:09:47.989Z,150
2016-04-04T11:10:48.039Z,150
2016-04-04T11:11:48.072Z,155
2016-04-04T11:12:48.122Z,150
2016-04-04T11:13:48.250Z,155
2016-04-04T11:14:48.206Z,150
2016-04-04T11:15:48.255Z,135
2016-04-04T11:16:48.289Z,130
2016-04-04T11:17:48.323Z,140
2016-04-04T11:18:48.389Z,145
2016-04-04T11:19:48.578Z,165
2016-04-04T11:20:48.456Z,180
2016-04-04T11:21:48.506Z,180
2016-04-04T11:22:48.540Z,165
2016-04-04T11:23:48.589Z,155
2016-04-04T11:24:48.623Z,165
2016-04-04T11:25:48.673Z,200
2016-04-04T11:26:48.707Z,200
2016-04-04T11:27:48.756Z,185
2016-04-04T11:28:48.791Z,170
2016-04-04T11:29:48.840Z,160
2016-04-04T11:30:48.874Z,160
2016-04-04T11:31:48.923Z,165
2016-04-04T11:32:49.004Z,175
2016-04-04T11:33:49.021Z,190
2016-04-04T11:34:49.149Z,195
2016-04-04T11:35:49.090Z,200
2016-04-04T11:36:49.123Z,205
2016-04-04T11:37:49.189Z,205
2016-04-04T11:38:49.213Z,200
2016-04-04T11:39:49.278Z,200
2016-04-04T11:40:49.312Z,195
2016-04-04T11:41:49.361Z,190
2016-04-04T11:42:49.395Z,185
2016-04-04T11:43:49.445Z,180
2016-04-04T11:44:49.494Z,170
2016-04-04T11:45:49.512Z,160
2016-04-04T11:46:49.561Z,150
2016-04-04T11:47:49.611Z,120
2016-04-04T11:48:49.630Z,105
2016-04-04T11:49:49.991Z,85
2016-04-04T11:50:49.572Z,65
2016-04-04T11:51:49.794Z,55
2016-04-04T11:52:49.813Z,55
2016-04-04T11:53:50.455Z,50
2016-04-04T11:54:49.912Z,45
2016-04-04T11:55:49.961Z,45
2016-04-04T11:56:49.996Z,45
2016-04-04T11:57:50.045Z,55
2016-04-04T11:58:50.079Z,65
2016-04-04T11:59:50.113Z,75
2016-04-04T12:00:50.162Z,100
2016-04-04T12:01:50.212Z,120
2016-04-04T12:02:50.262Z,120
2016-04-04T12:03:50.295Z,115
2016-04-04T12:04:50.345Z,110
2016-04-04T12:05:50.362Z,130
2016-04-04T12:06:50.397Z,165
2016-04-04T12:07:50.431Z,185
2016-04-04T12:08:50.495Z,175
2016-04-04T12:09:50.515Z,185
2016-04-04T12:10:50.579Z,200
2016-04-04T12:11:50.614Z,215
2016-04-04T12:12:50.648Z,195
2016-04-04T12:13:50.698Z,170
2016-04-04T12:14:50.731Z,145
2016-04-04T12:15:50.797Z,135
2016-04-04T12:16:50.814Z,125
2016-04-04T12:17:50.848Z,110
2016-04-04T12:18:50.898Z,105
2016-04-04T12:19:50.869Z,105
2016-04-04T12:20:50.982Z,110
2016-04-04T12:21:51.016Z,135
2016-04-04T12:22:51.066Z,155
2016-04-04T12:23:51.100Z,170
2016-04-04T12:24:51.149Z,185
2016-04-04T12:25:51.183Z,185
2016-04-04T12:26:51.248Z,180
2016-04-04T12:27:51.297Z,185
2016-04-04T12:28:51.347Z,180
2016-04-04T12:29:51.349Z,170
2016-04-04T12:30:51.399Z,155
2016-04-04T12:31:51.433Z,150
2016-04-04T12:32:51.467Z,140
2016-04-04T12:33:51.516Z,135
2016-04-04T12:34:51.612Z,130
2016-04-04T12:35:51.443Z,130
2016-04-04T12:36:51.634Z,120
2016-04-04T12:37:51.684Z,115
2016-04-04T12:38:51.717Z,100
2016-04-04T12:39:51.752Z,85
2016-04-04T12:40:51.817Z,90
2016-04-04T12:41:51.851Z,95
2016-04-04T12:42:51.901Z,95
2016-04-04T12:43:51.934Z,90
2016-04-04T12:44:51.968Z,85
2016-04-04T12:45:52.002Z,80
2016-04-04T12:46:52.067Z,80
2016-04-04T12:47:52.101Z,80
2016-04-04T12:48:52.135Z,75
2016-04-04T12:49:52.294Z,70
2016-04-04T12:50:52.219Z,65
2016-04-04T12:51:52.252Z,65
2016-04-04T12:52:52.286Z,75
2016-04-04T12:53:52.335Z,90
2016-04-04T12:54:52.385Z,95
2016-04-04T12:55:52.435Z,95
2016-04-04T12:56:52.499Z,100
2016-04-04T12:57:52.535Z,95
2016-04-04T12:58:52.552Z,95
2016-04-04T12:59:52.586Z,90
2016-04-04T13:00:52.621Z,105
2016-04-04T13:01:52.671Z,115
2016-04-04T13:02:52.719Z,135
2016-04-04T13:03:52.785Z,160
2016-04-04T13:04:52.990Z,190
2016-04-04T13:05:52.868Z,215
2016-04-04T13:06:52.887Z,225
2016-04-04T13:07:52.904Z,230
2016-04-04T13:08:52.940Z,230
2016-04-04T13:09:52.988Z,235
2016-04-04T13:10:53.038Z,230
2016-04-04T13:11:53.073Z,225
2016-04-04T13:12:53.121Z,225
2016-04-04T13:13:53.171Z,220
2016-04-04T13:14:53.205Z,205
2016-04-04T13:15:53.254Z,195
2016-04-04T13:16:53.320Z,190
2016-04-04T13:17:53.338Z,180
2016-04-04T13:18:53.356Z,180
2016-04-04T13:19:53.422Z,170
2016-04-04T13:20:53.455Z,150
2016-04-04T13:21:53.474Z,145
2016-04-04T13:22:53.538Z,155
2016-04-04T13:23:53.572Z,155
2016-04-04T13:24:53.607Z,160
2016-04-04T13:25:53.656Z,165
2016-04-04T13:26:53.705Z,170
2016-04-04T13:27:53.725Z,155
2016-04-04T13:28:53.774Z,145
2016-04-04T13:29:53.808Z,135
2016-04-04T13:30:53.780Z,140
2016-04-04T13:31:53.891Z,145
2016-04-04T13:32:53.941Z,130
2016-04-04T13:33:53.991Z,110
2016-04-04T13:34:54.180Z,90
2016-04-04T13:35:54.074Z,110
2016-04-04T13:36:54.123Z,145
2016-04-04T13:37:54.157Z,140
2016-04-04T13:38:54.191Z,120
2016-04-04T13:39:54.256Z,95
2016-04-04T13:40:54.290Z,65
2016-04-04T13:41:54.323Z,60
2016-04-04T13:42:54.342Z,55
2016-04-04T13:43:54.392Z,50
2016-04-04T13:44:54.442Z,40
2016-04-04T13:45:54.475Z,35
2016-04-04T13:46:54.509Z,30
2016-04-04T13:47:54.559Z,30
2016-04-04T13:48:54.625Z,25
2016-04-04T13:49:54.471Z,25
2016-04-04T13:50:54.677Z,25
2016-04-04T13:51:54.726Z,20
2016-04-04T13:52:54.792Z,25
2016-04-04T13:53:54.810Z,35
2016-04-04T13:54:54.859Z,40
2016-04-04T13:55:54.924Z,50
2016-04-04T13:56:54.943Z,40
2016-04-04T13:57:54.992Z,35
2016-04-04T13:58:54.979Z,35
2016-04-04T13:59:55.044Z,35
2016-04-04T14:00:55.094Z,35
2016-04-04T14:01:55.128Z,35
2016-04-04T14:02:55.194Z,40
2016-04-04T14:03:55.243Z,50
2016-04-04T14:04:55.058Z,60
2016-04-04T14:05:55.295Z,65
2016-04-04T14:06:55.188Z,65
2016-04-04T14:07:55.379Z,75
2016-04-04T14:08:55.256Z,95
2016-04-04T14:09:55.478Z,115
2016-04-04T14:10:55.496Z,140